createdAt,value
2023-04-22T00:00:49.092Z,31.40
2023-04-22T00:03:18.930Z,32.67
2023-04-22T00:05:47.524Z,31.90
2023-04-22T00:08:15.506Z,34.70
2023-04-22T00:10:43.715Z,32.93
2023-04-22T00:13:12.900Z,31.23
2023-04-22T00:15:40.906Z,31.00
2023-04-22T00:18:14.157Z,33.60
2023-04-22T00:20:44.198Z,32.10
2023-04-22T00:23:13.092Z,31.97
2023-04-22T00:25:41.787Z,32.30
2023-04-22T00:28:10.100Z,32.77
2023-04-22T00:30:38.005Z,33.33
2023-04-22T00:33:06.114Z,32.43
2023-04-22T00:35:34.151Z,35.47
2023-04-22T00:38:03.518Z,35.60
2023-04-22T00:40:31.373Z,35.53
2023-04-22T00:43:00.758Z,35.70
2023-04-22T00:45:28.852Z,37.53
2023-04-22T00:47:58.403Z,34.47
2023-04-22T00:50:26.921Z,34.53
2023-04-22T00:52:54.977Z,35.07
2023-04-22T00:55:24.765Z,35.27
2023-04-22T00:57:55.823Z,36.77
2023-04-22T01:00:27.345Z,34.97
2023-04-22T01:02:56.612Z,35.47
2023-04-22T01:05:25.575Z,35.47
2023-04-22T01:07:53.507Z,34.13
2023-04-22T01:10:21.488Z,34.70
2023-04-22T01:12:50.824Z,35.70
2023-04-22T01:15:19.011Z,39.13
2023-04-22T01:17:47.424Z,36.17
2023-04-22T01:20:15.900Z,34.13
2023-04-22T01:22:46.616Z,34.50
2023-04-22T01:25:16.057Z,36.10
2023-04-22T01:27:44.569Z,34.23
2023-04-22T01:30:13.353Z,34.93
2023-04-22T01:32:42.234Z,34.30
2023-04-22T01:35:10.835Z,36.03
2023-04-22T01:37:39.059Z,31.30
2023-04-22T01:40:10.452Z,34.57
2023-04-22T01:42:40.172Z,33.10
2023-04-22T01:45:09.069Z,35.93
2023-04-22T01:47:36.964Z,32.67
2023-04-22T01:50:05.447Z,33.30
2023-04-22T01:52:33.701Z,34.60
2023-04-22T01:55:03.293Z,33.77
2023-04-22T01:57:31.323Z,32.97
2023-04-22T02:00:00.682Z,34.07
2023-04-22T02:02:28.893Z,34.23
2023-04-22T02:04:56.771Z,35.17
2023-04-22T02:07:24.818Z,31.90
2023-04-22T02:09:53.490Z,33.17
2023-04-22T02:12:21.648Z,33.70
2023-04-22T02:14:49.682Z,34.77
2023-04-22T02:17:18.874Z,34.50
2023-04-22T02:19:49.388Z,34.43
2023-04-22T02:22:17.811Z,34.73
2023-04-22T02:24:45.884Z,37.60
2023-04-22T02:27:13.752Z,35.37
2023-04-22T02:29:41.926Z,32.37
2023-04-22T02:32:10.421Z,33.43
2023-04-22T02:34:39.694Z,33.23
2023-04-22T02:37:07.617Z,32.43
2023-04-22T02:39:35.532Z,31.90
2023-04-22T02:42:03.407Z,34.77
2023-04-22T02:44:31.431Z,32.03
2023-04-22T02:46:59.686Z,35.23
2023-04-22T02:49:27.552Z,31.80
2023-04-22T02:51:58.216Z,32.00
2023-04-22T02:54:26.109Z,33.67
2023-04-22T02:56:54.159Z,33.60
2023-04-22T02:59:21.992Z,31.90
2023-04-22T03:01:50.068Z,33.07
2023-04-22T03:04:18.561Z,34.70
2023-04-22T03:06:46.690Z,33.47
2023-04-22T03:09:15.990Z,33.97
2023-04-22T03:11:43.956Z,32.17
2023-04-22T03:14:11.916Z,34.33
2023-04-22T03:16:39.800Z,33.43
2023-04-22T03:19:07.690Z,33.33
2023-04-22T03:21:35.740Z,31.60
2023-04-22T03:24:03.719Z,32.37
2023-04-22T03:26:32.927Z,32.57
2023-04-22T03:29:00.967Z,33.73
2023-04-22T03:31:29.287Z,31.10
2023-04-22T03:33:57.250Z,31.60
2023-04-22T03:36:25.316Z,29.37
2023-04-22T03:38:53.171Z,31.80
2023-04-22T03:41:21.067Z,31.17
2023-04-22T03:43:50.328Z,30.60
2023-04-22T03:46:18.468Z,30.40
2023-04-22T03:48:46.342Z,31.30
2023-04-22T03:51:14.248Z,31.50
2023-04-22T03:53:42.144Z,31.13
2023-04-22T03:56:09.971Z,31.00
2023-04-22T03:58:37.981Z,30.17
2023-04-22T04:01:07.843Z,31.20
2023-04-22T04:03:36.021Z,34.00
2023-04-22T04:06:05.018Z,30.50
2023-04-22T04:08:32.898Z,29.70
2023-04-22T04:11:00.782Z,30.23
2023-04-22T04:13:32.479Z,30.73
2023-04-22T04:16:01.419Z,30.87
2023-04-22T04:18:30.920Z,31.10
2023-04-22T04:20:58.727Z,30.43
2023-04-22T04:23:27.084Z,32.23
2023-04-22T04:25:55.833Z,30.43
2023-04-22T04:28:24.480Z,31.80
2023-04-22T04:30:53.922Z,30.83
2023-04-22T04:33:21.792Z,33.10
2023-04-22T04:35:51.461Z,31.10
2023-04-22T04:38:19.756Z,35.87
2023-04-22T04:40:48.020Z,29.97
2023-04-22T04:43:16.083Z,31.83
2023-04-22T04:45:48.374Z,34.73
2023-04-22T04:48:17.307Z,34.43
2023-04-22T04:50:45.314Z,33.37
2023-04-22T04:53:14.620Z,33.23
2023-04-22T04:55:42.599Z,31.40
2023-04-22T04:58:10.689Z,34.23
2023-04-22T05:00:38.718Z,29.83
2023-04-22T05:03:06.882Z,30.03
2023-04-22T05:05:35.211Z,29.60
2023-04-22T05:08:03.162Z,29.80
2023-04-22T05:10:32.720Z,31.20
2023-04-22T05:13:02.742Z,29.87
2023-04-22T05:15:32.150Z,32.33
2023-04-22T05:18:00.368Z,30.90
2023-04-22T05:20:28.268Z,29.23
2023-04-22T05:22:56.307Z,29.50
2023-04-22T05:25:24.233Z,31.43
2023-04-22T05:27:53.535Z,30.13
2023-04-22T05:30:21.438Z,30.93
2023-04-22T05:32:49.514Z,30.77
2023-04-22T05:35:17.710Z,31.00
2023-04-22T05:37:45.806Z,29.97
2023-04-22T05:40:14.005Z,29.40
2023-04-22T05:42:42.112Z,32.17
2023-04-22T05:45:12.746Z,30.97
2023-04-22T05:47:40.821Z,29.80
2023-04-22T05:50:09.705Z,30.20
2023-04-22T05:52:37.563Z,29.77
2023-04-22T05:55:06.419Z,31.03
2023-04-22T05:57:34.512Z,30.07
2023-04-22T06:00:02.609Z,33.20
2023-04-22T06:02:32.327Z,30.30
2023-04-22T06:05:00.696Z,31.13
2023-04-22T06:07:28.860Z,29.90
2023-04-22T06:10:04.049Z,29.73
2023-04-22T06:12:34.305Z,31.60
2023-04-22T06:15:02.211Z,30.97
2023-04-22T06:17:31.696Z,30.63
2023-04-22T06:19:59.748Z,30.90
2023-04-22T06:22:27.830Z,31.17
2023-04-22T06:24:55.793Z,30.50
2023-04-22T06:27:23.726Z,31.53
2023-04-22T06:29:51.895Z,30.70
2023-04-22T06:32:19.753Z,30.87
2023-04-22T06:34:49.247Z,31.77
2023-04-22T06:37:17.457Z,30.07
2023-04-22T06:39:45.531Z,29.87
2023-04-22T06:42:13.403Z,30.57
2023-04-22T06:44:41.831Z,30.50
2023-04-22T06:47:09.781Z,30.13
2023-04-22T06:49:39.565Z,30.30
2023-04-22T06:52:09.306Z,30.83
2023-04-22T06:54:38.640Z,31.33
2023-04-22T06:57:08.183Z,30.87
2023-04-22T06:59:36.241Z,32.40
2023-04-22T07:02:04.463Z,30.40
2023-04-22T07:04:32.484Z,31.70
2023-04-22T07:07:00.698Z,31.60
2023-04-22T07:09:30.273Z,32.50
2023-04-22T07:11:58.918Z,32.10
2023-04-22T07:14:27.518Z,32.70
2023-04-22T07:16:55.682Z,34.20
2023-04-22T07:19:23.905Z,33.30
2023-04-22T07:21:52.081Z,32.77
2023-04-22T07:24:20.131Z,32.60
2023-04-22T07:26:49.603Z,33.40
2023-04-22T07:29:17.947Z,33.57
2023-04-22T07:31:46.260Z,33.27
2023-04-22T07:34:14.845Z,34.80
2023-04-22T07:36:42.990Z,34.37
2023-04-22T07:39:11.556Z,35.10
2023-04-22T07:41:39.487Z,35.70
2023-04-22T07:44:10.510Z,34.90
2023-04-22T07:46:38.453Z,36.00
2023-04-22T07:49:06.328Z,35.43
2023-04-22T07:51:34.234Z,35.67
2023-04-22T07:54:02.251Z,35.30
2023-04-22T07:56:30.797Z,37.07
2023-04-22T07:58:58.934Z,38.13
2023-04-22T08:01:28.426Z,38.27
2023-04-22T08:03:56.634Z,37.27
2023-04-22T08:06:24.681Z,38.67
2023-04-22T08:08:52.957Z,38.00
2023-04-22T08:11:21.149Z,38.30
2023-04-22T08:13:49.048Z,39.60
2023-04-22T08:16:17.500Z,41.08
2023-04-22T08:18:52.144Z,41.60
2023-04-22T08:21:20.359Z,41.13
2023-04-22T08:23:48.422Z,41.30
2023-04-22T08:26:19.372Z,43.10
2023-04-22T08:28:48.070Z,41.90
2023-04-22T08:31:16.531Z,42.50
2023-04-22T08:33:47.215Z,42.83
2023-04-22T08:36:21.718Z,44.13
2023-04-22T08:38:50.434Z,44.40
2023-04-22T08:41:19.851Z,44.30
2023-04-22T08:43:49.644Z,44.95
2023-04-22T08:46:21.084Z,46.20
2023-04-22T08:48:56.139Z,46.40
2023-04-22T08:51:27.216Z,46.53
2023-04-22T08:53:55.375Z,46.70
2023-04-22T08:56:23.868Z,48.67
2023-04-22T08:58:54.137Z,47.80
2023-04-22T09:01:24.273Z,48.65
2023-04-22T09:04:08.497Z,48.80
2023-04-22T09:06:40.985Z,49.80
2023-04-22T09:09:18.246Z,48.78
2023-04-22T09:11:46.894Z,49.67
2023-04-22T09:14:14.985Z,68.93
2023-04-22T15:02:17.256Z,45.97
2023-04-22T15:04:45.584Z,45.73
2023-04-22T15:07:14.171Z,45.30
2023-04-22T15:09:45.359Z,45.00
2023-04-22T15:12:13.363Z,45.60
2023-04-22T15:14:41.654Z,43.73
2023-04-22T15:17:09.720Z,42.90
2023-04-22T15:19:37.832Z,42.60
2023-04-22T15:22:06.237Z,42.13
2023-04-22T15:24:34.138Z,41.90
2023-04-22T15:27:03.945Z,42.27
2023-04-22T15:29:32.286Z,41.63
2023-04-22T15:32:02.307Z,41.17
2023-04-22T15:34:30.616Z,41.50
2023-04-22T15:36:59.243Z,41.57
2023-04-22T15:39:26.378Z,63.90
2023-04-22T15:41:54.618Z,59.73
2023-04-22T15:44:24.073Z,50.37
2023-04-22T15:46:53.355Z,61.40
2023-04-22T15:49:21.346Z,48.10
2023-04-22T15:51:49.209Z,50.90
2023-04-22T15:54:17.180Z,53.40
2023-04-22T15:56:46.195Z,48.97
2023-04-22T15:59:14.384Z,55.03
2023-04-22T16:01:46.421Z,63.17
2023-04-22T16:04:15.283Z,64.37
2023-04-22T16:06:43.661Z,50.40
2023-04-22T16:09:11.674Z,50.47
2023-04-22T16:11:42.120Z,57.63
2023-04-22T16:14:11.169Z,61.33
2023-04-22T16:16:41.308Z,49.23
2023-04-22T16:19:10.970Z,63.23
2023-04-22T16:21:38.982Z,49.23
2023-04-22T16:24:07.737Z,72.67
2023-04-22T16:26:35.761Z,72.77
2023-04-22T16:29:04.271Z,107.73
2023-04-22T16:31:32.228Z,50.00
2023-04-22T16:34:00.442Z,61.07
2023-04-22T16:36:30.045Z,47.30
2023-04-22T16:38:58.265Z,122.03
2023-04-22T16:41:26.279Z,48.37
2023-04-22T16:43:54.496Z,52.07
2023-04-22T16:46:23.170Z,55.87
2023-04-22T16:48:51.174Z,52.53
2023-04-22T16:51:19.361Z,50.60
2023-04-22T16:53:48.918Z,52.10
2023-04-22T16:56:17.092Z,47.90
2023-04-22T16:58:44.962Z,64.80
2023-04-22T17:01:13.130Z,50.60
2023-04-22T17:03:41.512Z,49.23
2023-04-22T17:06:09.690Z,50.60
2023-04-22T17:08:39.484Z,48.43
2023-04-22T17:11:09.433Z,53.13
2023-04-22T17:13:37.606Z,76.17
2023-04-22T17:16:06.797Z,82.93
2023-04-22T17:18:35.064Z,49.40
2023-04-22T17:21:03.160Z,48.33
2023-04-22T17:23:31.335Z,52.13
2023-04-22T17:25:59.470Z,56.67
2023-04-22T17:28:29.321Z,55.27
2023-04-22T17:30:57.286Z,51.23
2023-04-22T17:33:26.332Z,49.87
2023-04-22T17:35:54.320Z,61.27
2023-04-22T17:38:22.256Z,50.63
2023-04-22T17:40:50.435Z,49.27
2023-04-22T17:43:19.397Z,52.40
2023-04-22T17:45:48.792Z,58.23
2023-04-22T17:48:16.996Z,48.83
2023-04-22T17:50:44.984Z,51.03
2023-04-22T17:53:13.553Z,78.13
2023-04-22T17:55:41.528Z,47.90
2023-04-22T17:58:09.798Z,49.13
2023-04-22T18:00:38.955Z,59.97
2023-04-22T18:03:09.725Z,48.73
2023-04-22T18:05:42.905Z,50.23
2023-04-22T18:08:11.822Z,50.50
2023-04-22T18:10:40.305Z,48.83
2023-04-22T18:13:08.285Z,52.50
2023-04-22T18:15:36.245Z,54.00
2023-04-22T18:18:04.512Z,46.90
2023-04-22T18:20:34.695Z,60.87
2023-04-22T18:23:03.044Z,58.33
2023-04-22T18:25:31.045Z,53.25
2023-04-22T18:27:59.239Z,51.85
2023-04-22T18:30:27.260Z,54.23
2023-04-22T18:32:55.371Z,53.10
2023-04-22T18:35:23.366Z,52.45
2023-04-22T18:37:52.777Z,48.47
2023-04-22T18:40:21.108Z,48.40
2023-04-22T18:42:49.162Z,50.77
2023-04-22T18:45:17.443Z,55.60
2023-04-22T18:47:46.915Z,49.67
2023-04-22T18:50:15.033Z,46.17
2023-04-22T18:52:43.772Z,46.57
2023-04-22T18:55:13.185Z,52.77
2023-04-22T18:57:41.458Z,47.50
2023-04-22T19:00:12.553Z,49.77
2023-04-22T19:02:42.365Z,59.53
2023-04-22T19:05:11.216Z,59.10
2023-04-22T19:07:41.191Z,47.57
2023-04-22T19:10:10.749Z,52.97
2023-04-22T19:12:40.261Z,46.33
2023-04-22T19:15:09.320Z,46.17
2023-04-22T19:17:38.006Z,48.27
2023-04-22T19:20:08.377Z,50.00
2023-04-22T19:22:36.440Z,45.90
2023-04-22T19:25:06.188Z,43.13
2023-04-22T19:27:34.498Z,45.37
2023-04-22T19:30:04.136Z,48.20
2023-04-22T19:32:32.406Z,46.97
2023-04-22T19:35:03.841Z,49.80
2023-04-22T19:37:32.283Z,45.23
2023-04-22T19:40:00.499Z,46.20
2023-04-22T19:42:29.058Z,44.07
2023-04-22T19:44:58.964Z,56.77
2023-04-22T19:47:28.634Z,48.43
2023-04-22T19:49:59.031Z,51.57
2023-04-22T19:52:27.676Z,42.03
2023-04-22T19:54:58.738Z,49.90
2023-04-22T19:57:28.693Z,48.93
2023-04-22T19:59:57.144Z,59.70
2023-04-22T20:02:26.035Z,50.30
2023-04-22T20:04:55.968Z,69.30
2023-04-22T20:07:24.121Z,44.17
2023-04-22T20:09:56.753Z,42.73
2023-04-22T20:12:26.008Z,48.63
2023-04-22T20:14:54.263Z,56.03
2023-04-22T20:17:22.953Z,49.07
2023-04-22T20:19:51.447Z,75.93
2023-04-22T20:22:23.349Z,45.60
2023-04-22T20:25:01.984Z,73.67
2023-04-22T20:27:30.562Z,48.60
2023-04-22T20:29:59.354Z,48.07
2023-04-22T20:32:28.254Z,45.40
2023-04-22T20:34:57.347Z,48.23
2023-04-22T20:37:28.467Z,46.13
2023-04-22T20:39:57.753Z,51.50
2023-04-22T20:42:25.967Z,45.17
2023-04-22T20:44:53.861Z,48.60
2023-04-22T20:47:21.853Z,47.67
2023-04-22T20:49:49.841Z,46.53
2023-04-22T20:52:17.845Z,43.70
2023-04-22T20:54:51.072Z,47.90
2023-04-22T20:57:20.222Z,45.23
2023-04-22T20:59:48.234Z,52.93
2023-04-22T21:02:18.142Z,57.07
2023-04-22T21:04:46.492Z,66.63
2023-04-22T21:07:16.781Z,59.23
2023-04-22T21:09:47.019Z,51.90
2023-04-22T21:12:17.420Z,50.47
2023-04-22T21:14:45.892Z,46.90
2023-04-22T21:17:20.546Z,51.63
2023-04-22T21:19:53.189Z,46.50
2023-04-22T21:22:22.992Z,51.37
2023-04-22T21:24:53.774Z,44.63
2023-04-22T21:27:23.253Z,54.13
2023-04-22T21:29:51.994Z,47.23
2023-04-22T21:32:20.841Z,48.77
2023-04-22T21:34:48.793Z,53.27
2023-04-22T21:37:16.825Z,47.17
2023-04-22T21:39:45.018Z,47.97
2023-04-22T21:42:14.568Z,52.07
2023-04-22T21:44:49.303Z,52.07
2023-04-22T21:47:17.509Z,50.23
2023-04-22T21:49:45.983Z,55.83
2023-04-22T21:52:16.322Z,47.83
2023-04-22T21:54:45.429Z,40.17
2023-04-22T21:57:15.104Z,39.03
2023-04-22T21:59:43.190Z,40.90
2023-04-22T22:02:13.792Z,40.73
2023-04-22T22:04:41.793Z,39.30
2023-04-22T22:07:11.734Z,37.63
2023-04-22T22:09:41.935Z,39.93
2023-04-22T22:12:10.830Z,38.10
2023-04-22T22:14:40.530Z,36.77
2023-04-22T22:17:09.885Z,39.80
2023-04-22T22:19:38.816Z,37.60
2023-04-22T22:22:07.036Z,39.77
2023-04-22T22:24:35.018Z,41.00
2023-04-22T22:27:05.026Z,41.03
2023-04-22T22:29:33.280Z,38.43
2023-04-22T22:32:03.838Z,40.30
2023-04-22T22:34:31.785Z,35.97
2023-04-22T22:37:00.034Z,38.33
2023-04-22T22:39:28.761Z,37.63
2023-04-22T22:41:58.348Z,38.63
2023-04-22T22:44:26.435Z,36.93
2023-04-22T22:46:54.545Z,38.47
2023-04-22T22:49:24.650Z,37.60
2023-04-22T22:51:52.782Z,38.40
2023-04-22T22:54:21.096Z,37.47
2023-04-22T22:56:49.186Z,35.90
2023-04-22T22:59:17.317Z,39.40
2023-04-22T23:01:45.719Z,36.80
2023-04-22T23:04:15.553Z,39.27
2023-04-22T23:06:45.344Z,38.40
2023-04-22T23:09:18.702Z,36.03
2023-04-22T23:11:48.477Z,36.20
2023-04-22T23:14:17.815Z,35.70
2023-04-22T23:16:46.146Z,35.67
2023-04-22T23:19:15.908Z,37.27
2023-04-22T23:21:45.969Z,35.00
2023-04-22T23:24:15.962Z,35.00
2023-04-22T23:26:44.812Z,37.60
2023-04-22T23:29:13.356Z,35.90
2023-04-22T23:31:42.909Z,37.10
2023-04-22T23:34:11.233Z,35.50
2023-04-22T23:36:39.421Z,34.70
2023-04-22T23:39:09.895Z,37.10
2023-04-22T23:41:38.934Z,34.83
2023-04-22T23:44:07.589Z,35.00
2023-04-22T23:46:35.906Z,35.40
2023-04-22T23:49:04.378Z,37.80
2023-04-22T23:51:32.606Z,34.60
2023-04-22T23:54:00.743Z,36.70
2023-04-22T23:56:31.409Z,35.53
2023-04-22T23:59:00.054Z,35.60
